Time;durP1;ratioP1;P1;durP2;ratioP2;P2;SDS_P1;SDS_P2;PMS_P1;PMS_P2;Temp;Humidity;BMP_temperature;BMP_pressure;BME280_temperature;BME280_humidity;BME280_pressure;Samples;Min_cycle;Max_cycle;Signal;HPM_P1;HPM_P2
2023/10/04 00:00:27;;;;;;;1.63;0.85;;;16.70;99.90;;;;;;7393996;19;20131;-87
2023/10/04 00:02:54;;;;;;;1.10;0.70;;;16.60;99.90;;;;;;7394045;19;20154;-86
2023/10/04 00:05:24;;;;;;;1.10;0.70;;;16.40;99.90;;;;;;7391894;19;20150;-87
2023/10/04 00:07:52;;;;;;;0.50;0.50;;;16.40;99.90;;;;;;7396113;19;20135;-87
2023/10/04 00:10:23;;;;;;;0.63;0.43;;;16.40;99.90;;;;;;7394585;19;20155;-87
2023/10/04 00:12:50;;;;;;;0.40;0.40;;;16.60;99.90;;;;;;7394214;19;20165;-88
2023/10/04 00:15:25;;;;;;;1.00;0.68;;;16.40;99.90;;;;;;7391930;19;20134;-86
2023/10/04 00:17:52;;;;;;;0.63;0.63;;;16.50;99.90;;;;;;7394473;19;20138;-88
2023/10/04 00:20:19;;;;;;;1.20;0.73;;;16.40;99.90;;;;;;7390539;19;20147;-87
2023/10/04 00:22:49;;;;;;;0.40;0.40;;;16.40;99.90;;;;;;7393087;19;20164;-86
2023/10/04 00:25:22;;;;;;;1.10;0.52;;;16.40;99.90;;;;;;7394074;19;20155;-87
2023/10/04 00:27:55;;;;;;;0.45;0.40;;;16.40;99.90;;;;;;7393133;19;20154;-86
2023/10/04 00:30:26;;;;;;;1.13;0.80;;;16.30;99.90;;;;;;7393968;19;20146;-85
2023/10/04 00:32:53;;;;;;;1.65;0.68;;;16.00;99.90;;;;;;7390065;19;20126;-87
2023/10/04 00:35:21;;;;;;;0.95;0.85;;;16.00;99.90;;;;;;7391477;19;20143;-87
2023/10/04 00:37:55;;;;;;;1.10;0.80;;;15.90;99.90;;;;;;7393223;19;20174;-87
2023/10/04 00:40:30;;;;;;;1.15;0.60;;;15.90;99.90;;;;;;7391593;19;20163;-87
2023/10/04 00:43:01;;;;;;;0.45;0.45;;;15.80;99.90;;;;;;7392449;19;20222;-87
2023/10/04 00:45:34;;;;;;;1.63;0.75;;;15.70;99.90;;;;;;7392727;19;20482;-88
2023/10/04 00:48:04;;;;;;;0.90;0.60;;;15.80;99.90;;;;;;7393031;19;20157;-87
2023/10/04 00:50:31;;;;;;;1.00;0.65;;;15.80;99.90;;;;;;7392388;19;20126;-86
2023/10/04 00:53:00;;;;;;;0.75;0.40;;;15.80;99.90;;;;;;7392089;19;20624;-86
2023/10/04 00:55:29;;;;;;;0.70;0.52;;;15.80;99.90;;;;;;7388778;19;20158;-87
2023/10/04 00:57:57;;;;;;;0.70;0.60;;;15.90;99.90;;;;;;7391550;19;20135;-86
2023/10/04 01:00:24;;;;;;;2.53;0.82;;;16.00;99.90;;;;;;7392192;19;20146;-88
2023/10/04 01:02:50;;;;;;;0.52;0.52;;;16.10;99.90;;;;;;7393608;19;20583;-88
2023/10/04 01:05:17;;;;;;;0.70;0.60;;;16.10;99.90;;;;;;7390917;19;20153;-87
2023/10/04 01:07:44;;;;;;;0.98;0.70;;;16.10;99.90;;;;;;7393099;19;20142;-87
2023/10/04 01:10:20;;;;;;;0.85;0.80;;;16.10;99.90;;;;;;7392322;19;20283;-86
2023/10/04 01:12:49;;;;;;;0.50;0.50;;;16.20;99.90;;;;;;7393512;19;20158;-86
2023/10/04 01:15:31;;;;;;;0.63;0.60;;;16.10;99.90;;;;;;7389598;19;20159;-87
2023/10/04 01:18:04;;;;;;;0.38;0.38;;;15.90;99.90;;;;;;7392018;19;20299;-87
2023/10/04 01:20:30;;;;;;;0.50;0.50;;;15.80;99.90;;;;;;7391283;19;20489;-86
2023/10/04 01:23:05;;;;;;;0.68;0.60;;;15.60;99.90;;;;;;7390626;19;20131;-85
2023/10/04 01:25:36;;;;;;;0.88;0.50;;;15.50;99.90;;;;;;7391529;19;20201;-87
2023/10/04 01:28:17;;;;;;;0.52;0.50;;;15.60;99.90;;;;;;7389552;19;20224;-87
2023/10/04 01:30:50;;;;;;;0.70;0.40;;;15.80;99.90;;;;;;7390658;19;20155;-86
2023/10/04 01:33:18;;;;;;;0.47;0.40;;;15.90;99.90;;;;;;7391282;19;20141;-86
2023/10/04 01:35:54;;;;;;;0.70;0.57;;;15.90;99.90;;;;;;7389804;19;20163;-87
2023/10/04 01:38:27;;;;;;;0.82;0.63;;;15.80;99.90;;;;;;7392099;19;20142;-87
2023/10/04 01:40:55;;;;;;;1.13;0.35;;;15.60;99.90;;;;;;7391200;19;20171;-85
2023/10/04 01:43:24;;;;;;;0.75;0.55;;;15.60;99.90;;;;;;7391649;19;20237;-85
2023/10/04 01:46:00;;;;;;;0.50;0.50;;;15.80;99.90;;;;;;7395420;19;20166;-85
2023/10/04 01:48:27;;;;;;;0.45;0.43;;;15.80;99.90;;;;;;7396148;19;20583;-85
2023/10/04 01:50:53;;;;;;;0.90;0.65;;;15.90;99.90;;;;;;7396783;19;20127;-86
2023/10/04 01:53:24;;;;;;;0.63;0.50;;;15.70;99.90;;;;;;7395686;19;20142;-86
2023/10/04 01:55:50;;;;;;;1.70;0.77;;;15.40;99.90;;;;;;7394762;19;20131;-88
2023/10/04 01:58:21;;;;;;;0.30;0.30;;;15.40;99.90;;;;;;7395199;19;20135;-86
2023/10/04 02:00:47;;;;;;;0.90;0.60;;;15.20;99.90;;;;;;7394501;19;20146;-85
2023/10/04 02:03:14;;;;;;;0.70;0.70;;;15.10;99.90;;;;;;7393977;19;20134;-88
2023/10/04 02:05:40;;;;;;;0.30;0.30;;;15.30;99.90;;;;;;7393980;19;20237;-87
2023/10/04 02:08:07;;;;;;;1.17;0.70;;;15.40;99.90;;;;;;7396677;19;20141;-88
2023/10/04 02:10:34;;;;;;;1.85;0.63;;;15.60;99.90;;;;;;7396751;19;20151;-87
2023/10/04 02:13:00;;;;;;;0.88;0.60;;;15.50;99.90;;;;;;7395667;19;20134;-87
2023/10/04 02:15:25;;;;;;;0.40;0.40;;;15.60;99.90;;;;;;7393735;19;20144;-87
2023/10/04 02:17:53;;;;;;;0.68;0.50;;;15.70;99.90;;;;;;7395949;19;20194;-87
2023/10/04 02:20:23;;;;;;;0.88;0.50;;;15.70;99.90;;;;;;7394969;19;20135;-87
2023/10/04 02:22:50;;;;;;;0.40;0.38;;;15.70;99.90;;;;;;7391349;19;20179;-88
2023/10/04 02:25:17;;;;;;;1.02;0.65;;;15.60;99.90;;;;;;7390770;19;20138;-88
2023/10/04 02:27:49;;;;;;;0.47;0.47;;;15.60;99.90;;;;;;7390638;19;20150;-87
2023/10/04 02:30:18;;;;;;;0.47;0.47;;;15.50;99.90;;;;;;7388758;19;20159;-88
2023/10/04 02:32:45;;;;;;;1.00;0.60;;;15.70;99.90;;;;;;7389672;19;20138;-86
2023/10/04 02:35:28;;;;;;;1.00;0.68;;;15.60;99.90;;;;;;7387288;19;20571;-87
2023/10/04 02:38:09;;;;;;;0.73;0.63;;;15.80;99.90;;;;;;7389590;19;20180;-86
2023/10/04 02:40:37;;;;;;;0.47;0.40;;;15.80;99.90;;;;;;7388862;19;20155;-87
2023/10/04 02:43:07;;;;;;;0.60;0.50;;;15.80;99.90;;;;;;7393445;19;20491;-87
2023/10/04 02:45:35;;;;;;;0.43;0.40;;;15.70;99.90;;;;;;7391305;19;20134;-87
2023/10/04 02:48:01;;;;;;;0.73;0.60;;;15.60;99.90;;;;;;7396278;19;20134;-87
2023/10/04 02:50:27;;;;;;;0.55;0.55;;;15.50;99.90;;;;;;7395879;19;20145;-87
2023/10/04 02:52:53;;;;;;;0.55;0.38;;;15.60;99.90;;;;;;7395466;19;20205;-87
2023/10/04 02:55:19;;;;;;;0.70;0.50;;;15.50;99.90;;;;;;7396654;19;20572;-87
2023/10/04 02:57:49;;;;;;;1.00;0.60;;;15.40;99.90;;;;;;7395215;19;20155;-87
2023/10/04 03:00:17;;;;;;;0.82;0.50;;;15.50;99.90;;;;;;7393594;19;20163;-87
2023/10/04 03:02:49;;;;;;;1.42;0.45;;;15.50;99.90;;;;;;7396024;19;20226;-87
2023/10/04 03:05:19;;;;;;;0.63;0.60;;;15.50;99.90;;;;;;7393529;19;20627;-89
2023/10/04 03:07:47;;;;;;;0.65;0.55;;;15.60;99.90;;;;;;7395137;19;20858;-87
2023/10/04 03:10:23;;;;;;;1.52;0.60;;;15.60;99.90;;;;;;7396642;19;20146;-86
2023/10/04 03:12:54;;;;;;;0.75;0.40;;;15.40;99.90;;;;;;7397221;19;20170;-87
2023/10/04 03:15:23;;;;;;;1.73;0.73;;;15.30;99.90;;;;;;7396040;19;20479;-88
2023/10/04 03:17:53;;;;;;;0.65;0.57;;;15.40;99.90;;;;;;7396565;19;20161;-88
2023/10/04 03:20:29;;;;;;;0.50;0.50;;;15.30;99.90;;;;;;7397461;19;20139;-88
2023/10/04 03:22:55;;;;;;;0.60;0.57;;;15.20;99.90;;;;;;7395753;19;20148;-87
2023/10/04 03:25:26;;;;;;;0.50;0.50;;;15.40;99.90;;;;;;7395958;19;20217;-88
2023/10/04 03:27:52;;;;;;;0.57;0.50;;;15.40;99.90;;;;;;7397433;19;20131;-87
2023/10/04 03:30:18;;;;;;;1.38;0.80;;;15.30;99.90;;;;;;7398120;19;20145;-88
2023/10/04 03:32:52;;;;;;;1.58;0.80;;;15.40;99.90;;;;;;7398667;19;20202;-87
2023/10/04 03:35:21;;;;;;;0.57;0.50;;;15.50;99.90;;;;;;7397466;19;20138;-87
2023/10/04 03:37:58;;;;;;;0.88;0.70;;;15.40;99.90;;;;;;7399866;19;20149;-88
2023/10/04 03:40:38;;;;;;;1.05;0.70;;;15.60;99.90;;;;;;7400010;19;20161;-89
2023/10/04 03:43:07;;;;;;;0.30;0.30;;;15.60;99.90;;;;;;7395916;19;20142;-89
2023/10/04 03:45:33;;;;;;;1.05;0.60;;;15.70;99.90;;;;;;7395539;19;20149;-88
2023/10/04 03:47:59;;;;;;;0.60;0.50;;;15.60;99.90;;;;;;7395155;19;20164;-88
2023/10/04 03:50:25;;;;;;;0.93;0.80;;;15.40;99.90;;;;;;7395308;19;20151;-88
2023/10/04 03:52:52;;;;;;;1.08;0.63;;;15.40;99.90;;;;;;7394710;19;20142;-85
2023/10/04 03:55:18;;;;;;;1.33;0.85;;;15.50;99.90;;;;;;7392834;19;20131;-87
2023/10/04 03:57:44;;;;;;;0.73;0.68;;;15.30;99.90;;;;;;7392542;19;20165;-84
2023/10/04 04:00:12;;;;;;;1.02;0.63;;;15.20;99.90;;;;;;7392210;19;20134;-86
2023/10/04 04:02:39;;;;;;;0.80;0.57;;;15.20;99.90;;;;;;7392005;19;20627;-86
2023/10/04 04:05:09;;;;;;;0.95;0.57;;;15.20;99.90;;;;;;7392608;19;20177;-86
2023/10/04 04:07:35;;;;;;;0.75;0.75;;;15.40;99.90;;;;;;7390902;19;20154;-84
2023/10/04 04:10:05;;;;;;;0.80;0.45;;;15.50;99.90;;;;;;7393730;19;20624;-86
2023/10/04 04:12:31;;;;;;;1.58;0.35;;;15.60;99.90;;;;;;7391951;19;20576;-86
2023/10/04 04:14:57;;;;;;;0.52;0.52;;;15.50;99.90;;;;;;7390560;19;20178;-85
2023/10/04 04:17:23;;;;;;;0.70;0.70;;;15.60;99.90;;;;;;7392615;19;20134;-85
2023/10/04 04:19:50;;;;;;;0.90;0.70;;;15.50;99.90;;;;;;7394878;19;20154;-86
2023/10/04 04:22:23;;;;;;;0.90;0.50;;;15.20;99.90;;;;;;7392079;19;20143;-86
2023/10/04 04:24:52;;;;;;;0.80;0.60;;;15.00;99.90;;;;;;7391191;19;20155;-85
2023/10/04 04:27:27;;;;;;;1.27;0.70;;;14.90;99.90;;;;;;7393673;19;20149;-86
2023/10/04 04:29:53;;;;;;;0.57;0.52;;;15.10;99.90;;;;;;7390714;19;20150;-85
2023/10/04 04:32:26;;;;;;;0.75;0.57;;;15.10;99.90;;;;;;7392131;19;20162;-83
2023/10/04 04:34:56;;;;;;;1.17;0.68;;;15.10;99.90;;;;;;7390865;19;20134;-85
2023/10/04 04:37:24;;;;;;;0.82;0.60;;;15.20;99.90;;;;;;7392768;19;20153;-84
2023/10/04 04:39:51;;;;;;;0.60;0.52;;;15.10;99.90;;;;;;7392336;19;20134;-87
2023/10/04 04:42:22;;;;;;;0.50;0.47;;;15.00;99.90;;;;;;7392043;19;20150;-86
2023/10/04 04:44:48;;;;;;;0.60;0.47;;;14.90;99.90;;;;;;7390558;19;20181;-85
2023/10/04 04:47:17;;;;;;;2.45;0.90;;;14.80;99.90;;;;;;7391254;19;20159;-85
2023/10/04 04:49:43;;;;;;;1.52;0.70;;;14.80;99.90;;;;;;7391838;19;20153;-86
2023/10/04 04:52:09;;;;;;;0.57;0.52;;;14.70;99.90;;;;;;7391797;19;20140;-85
2023/10/04 04:54:35;;;;;;;1.23;0.80;;;14.60;99.90;;;;;;7390884;19;20141;-86
2023/10/04 04:57:02;;;;;;;0.98;0.70;;;14.60;99.90;;;;;;7391847;19;20494;-85
2023/10/04 04:59:28;;;;;;;0.90;0.35;;;14.70;99.90;;;;;;7392601;19;20167;-85
2023/10/04 05:01:55;;;;;;;0.38;0.38;;;14.70;99.90;;;;;;7392392;19;20170;-85
2023/10/04 05:04:22;;;;;;;0.70;0.63;;;14.60;99.90;;;;;;7390813;19;20767;-83
2023/10/04 05:06:49;;;;;;;0.77;0.77;;;14.60;99.90;;;;;;7387870;19;20260;-85
2023/10/04 05:09:17;;;;;;;0.90;0.65;;;14.70;99.90;;;;;;7390881;19;20499;-85
2023/10/04 05:11:45;;;;;;;1.13;0.70;;;14.80;99.90;;;;;;7391767;19;20154;-84
2023/10/04 05:14:11;;;;;;;0.80;0.77;;;14.80;99.90;;;;;;7389656;19;20162;-83
2023/10/04 05:16:38;;;;;;;0.45;0.38;;;14.90;99.90;;;;;;7389035;19;20143;-85
2023/10/04 05:19:08;;;;;;;0.47;0.47;;;14.80;99.90;;;;;;7390225;19;20292;-85
2023/10/04 05:21:34;;;;;;;1.70;0.68;;;14.90;99.90;;;;;;7390515;19;20153;-84
2023/10/04 05:24:00;;;;;;;1.23;0.65;;;15.00;99.90;;;;;;7389104;19;20523;-83
2023/10/04 05:26:27;;;;;;;2.58;0.70;;;15.00;99.90;;;;;;7390679;19;20142;-84
2023/10/04 05:28:53;;;;;;;0.50;0.43;;;14.90;99.90;;;;;;7390560;19;20135;-84
2023/10/04 05:31:18;;;;;;;1.00;0.90;;;14.80;99.90;;;;;;7390045;19;20161;-85
2023/10/04 05:33:44;;;;;;;1.35;0.80;;;14.90;99.90;;;;;;7391636;19;20561;-84
2023/10/04 05:36:10;;;;;;;3.95;2.03;;;14.80;99.90;;;;;;7386741;19;20126;-83
2023/10/04 05:38:36;;;;;;;1.30;0.80;;;14.60;99.90;;;;;;7390459;19;20494;-83
2023/10/04 05:41:03;;;;;;;0.73;0.60;;;14.70;99.90;;;;;;7386440;19;20138;-82
2023/10/04 05:43:29;;;;;;;1.20;0.65;;;14.80;99.90;;;;;;7389020;19;20600;-84
2023/10/04 05:45:55;;;;;;;1.30;0.75;;;14.70;99.90;;;;;;7390130;19;20153;-80
2023/10/04 05:48:21;;;;;;;0.50;0.50;;;14.80;99.90;;;;;;7391316;19;20134;-83
2023/10/04 05:50:50;;;;;;;0.55;0.52;;;15.00;99.90;;;;;;7391832;19;20477;-83
2023/10/04 05:53:19;;;;;;;1.05;0.95;;;14.90;99.90;;;;;;7390011;19;20130;-82
2023/10/04 05:55:46;;;;;;;0.88;0.60;;;14.70;99.90;;;;;;7387690;19;20276;-83
2023/10/04 05:58:12;;;;;;;1.08;0.73;;;14.50;99.90;;;;;;7391228;19;20146;-84
2023/10/04 06:00:41;;;;;;;0.63;0.50;;;14.60;99.90;;;;;;7390251;19;20487;-87
2023/10/04 06:03:12;;;;;;;1.02;0.75;;;14.70;99.90;;;;;;7389508;19;20218;-83
2023/10/04 06:05:42;;;;;;;0.75;0.55;;;14.80;99.90;;;;;;7388296;19;20683;-85
2023/10/04 06:08:18;;;;;;;0.85;0.60;;;14.80;99.90;;;;;;7389364;19;20494;-84
2023/10/04 06:10:46;;;;;;;0.70;0.43;;;14.70;99.90;;;;;;7388821;19;20173;-82
2023/10/04 06:13:12;;;;;;;0.75;0.70;;;14.80;99.90;;;;;;7388937;19;20222;-82
2023/10/04 06:15:44;;;;;;;1.40;0.82;;;14.90;99.90;;;;;;7386884;19;20176;-83
2023/10/04 06:18:13;;;;;;;1.08;0.80;;;14.90;99.90;;;;;;7391744;19;20149;-84
2023/10/04 06:20:40;;;;;;;0.85;0.52;;;14.90;99.90;;;;;;7396394;19;20676;-81
2023/10/04 06:23:09;;;;;;;0.68;0.60;;;15.00;99.90;;;;;;7396118;19;20135;-83
2023/10/04 06:25:44;;;;;;;1.52;0.93;;;15.10;99.90;;;;;;7394419;19;20202;-83
2023/10/04 06:28:11;;;;;;;1.58;1.15;;;14.90;99.90;;;;;;7395258;19;20641;-82
2023/10/04 06:30:38;;;;;;;3.00;2.30;;;15.00;99.90;;;;;;7396766;19;20153;-83
2023/10/04 06:33:05;;;;;;;1.27;0.80;;;15.00;99.90;;;;;;7403882;19;20162;-87
2023/10/04 06:35:32;;;;;;;1.15;0.77;;;15.20;99.90;;;;;;7394317;19;20796;-84
2023/10/04 06:38:06;;;;;;;1.77;1.30;;;15.00;99.90;;;;;;7393885;19;20556;-85
2023/10/04 06:40:32;;;;;;;2.78;1.98;;;15.10;99.90;;;;;;7394232;19;20157;-85
2023/10/04 06:43:00;;;;;;;1.98;1.20;;;15.10;99.90;;;;;;7395043;19;20180;-84
2023/10/04 06:45:27;;;;;;;2.75;1.73;;;15.10;99.90;;;;;;7395197;19;20147;-85
2023/10/04 06:47:54;;;;;;;0.88;0.88;;;15.20;99.90;;;;;;7394466;19;20139;-83
2023/10/04 06:50:22;;;;;;;1.25;0.85;;;15.10;99.90;;;;;;7396353;19;20145;-84
2023/10/04 06:52:50;;;;;;;1.05;0.50;;;15.00;99.90;;;;;;7394499;19;20162;-85
2023/10/04 06:55:18;;;;;;;1.50;0.75;;;14.80;99.90;;;;;;7393931;19;20146;-84
2023/10/04 06:57:47;;;;;;;3.42;2.00;;;15.00;99.90;;;;;;7394736;19;20592;-84
2023/10/04 07:00:18;;;;;;;1.98;1.20;;;15.00;99.90;;;;;;7395286;19;20159;-85
2023/10/04 07:02:54;;;;;;;1.02;0.90;;;15.10;99.90;;;;;;7396754;19;20160;-84
2023/10/04 07:05:25;;;;;;;0.90;0.60;;;15.20;99.90;;;;;;7393767;19;20201;-84
2023/10/04 07:07:52;;;;;;;1.02;0.57;;;15.10;99.90;;;;;;7399106;19;20142;-86
2023/10/04 07:10:20;;;;;;;0.60;0.60;;;15.10;99.90;;;;;;7394640;19;20595;-84
2023/10/04 07:12:57;;;;;;;1.77;0.60;;;15.20;99.90;;;;;;7396853;19;20139;-85
2023/10/04 07:15:36;;;;;;;0.80;0.65;;;15.10;99.90;;;;;;7394206;19;20138;-83
2023/10/04 07:18:07;;;;;;;1.50;0.50;;;15.00;99.90;;;;;;7394984;19;20158;-85
2023/10/04 07:20:34;;;;;;;1.27;0.57;;;15.30;99.90;;;;;;7395420;19;20526;-85
2023/10/04 07:23:03;;;;;;;1.15;0.55;;;15.10;99.90;;;;;;7394638;19;20225;-84
2023/10/04 07:25:44;;;;;;;1.05;0.35;;;15.00;99.90;;;;;;7394297;19;20149;-81
2023/10/04 07:28:11;;;;;;;1.42;0.77;;;15.00;99.90;;;;;;7391709;19;20505;-80
2023/10/04 07:30:39;;;;;;;0.82;0.60;;;15.20;99.90;;;;;;7393647;19;20130;-79
2023/10/04 07:33:07;;;;;;;0.90;0.70;;;15.20;99.90;;;;;;7397830;19;20131;-80
2023/10/04 07:35:34;;;;;;;0.68;0.55;;;15.10;99.90;;;;;;7390436;19;20177;-82
2023/10/04 07:38:01;;;;;;;0.98;0.60;;;15.10;99.90;;;;;;7388551;19;20145;-78
2023/10/04 07:40:27;;;;;;;1.38;0.70;;;15.30;99.90;;;;;;7391843;19;20122;-79
2023/10/04 07:42:55;;;;;;;2.75;1.13;;;15.40;99.90;;;;;;7394838;19;20153;-81
2023/10/04 07:45:27;;;;;;;2.35;1.08;;;15.70;99.90;;;;;;7396987;19;20134;-79
2023/10/04 07:47:54;;;;;;;1.02;0.80;;;15.80;99.90;;;;;;7393365;19;20492;-78
2023/10/04 07:50:24;;;;;;;2.70;0.70;;;15.90;99.90;;;;;;7392774;19;20141;-80
2023/10/04 07:52:59;;;;;;;1.33;1.00;;;15.90;99.90;;;;;;7394732;19;20145;-86
2023/10/04 07:55:25;;;;;;;0.77;0.77;;;15.90;99.90;;;;;;7394647;19;20150;-85
2023/10/04 07:58:02;;;;;;;1.40;1.02;;;16.10;99.90;;;;;;7393549;19;20146;-84
2023/10/04 08:00:29;;;;;;;1.10;0.90;;;16.10;99.90;;;;;;7394005;19;20564;-85
2023/10/04 08:02:57;;;;;;;0.60;0.60;;;16.10;99.90;;;;;;7393454;19;20142;-85
2023/10/04 08:05:31;;;;;;;0.80;0.60;;;16.00;99.90;;;;;;7392491;19;20151;-83
2023/10/04 08:07:58;;;;;;;0.77;0.60;;;15.70;99.90;;;;;;7392203;19;20150;-84
2023/10/04 08:10:29;;;;;;;0.50;0.50;;;15.70;99.90;;;;;;7393959;19;20154;-86
2023/10/04 08:12:59;;;;;;;0.70;0.70;;;15.40;99.90;;;;;;7397836;19;20170;-87
2023/10/04 08:15:26;;;;;;;0.73;0.65;;;15.60;99.90;;;;;;7394136;19;20158;-85
2023/10/04 08:17:54;;;;;;;0.47;0.43;;;15.30;99.90;;;;;;7403866;19;20130;-85
2023/10/04 08:20:22;;;;;;;1.95;0.90;;;15.40;99.90;;;;;;7393003;19;20150;-87
2023/10/04 08:22:48;;;;;;;0.63;0.52;;;15.60;99.90;;;;;;7393414;19;20218;-85
2023/10/04 08:25:23;;;;;;;1.13;0.65;;;15.90;99.90;;;;;;7394146;19;20146;-86
2023/10/04 08:27:49;;;;;;;2.17;1.30;;;16.20;99.90;;;;;;7392438;19;20146;-85
2023/10/04 08:30:18;;;;;;;0.52;0.43;;;16.30;99.90;;;;;;7391898;19;20150;-85
2023/10/04 08:32:47;;;;;;;0.50;0.40;;;16.30;99.90;;;;;;7393901;19;20134;-86
2023/10/04 08:35:24;;;;;;;3.08;0.93;;;16.40;99.90;;;;;;7395264;19;20576;-86
2023/10/04 08:37:55;;;;;;;1.02;0.60;;;16.60;99.90;;;;;;7395393;19;20167;-86
2023/10/04 08:40:22;;;;;;;0.30;0.30;;;16.70;99.90;;;;;;7390632;19;20166;-87
2023/10/04 08:42:52;;;;;;;2.05;1.08;;;16.80;99.90;;;;;;7392516;19;20170;-84
2023/10/04 08:45:19;;;;;;;1.05;0.70;;;16.80;99.90;;;;;;7393208;19;20138;-85
2023/10/04 08:47:55;;;;;;;1.60;0.68;;;17.00;99.90;;;;;;7396344;19;20162;-87
2023/10/04 08:50:46;;;;;;;2.17;0.70;;;17.00;99.90;;;;;;7392629;19;20139;-87
2023/10/04 08:53:40;;;;;;;0.93;0.38;;;17.10;99.90;;;;;;7393087;19;20143;-85
2023/10/04 08:56:11;;;;;;;0.82;0.65;;;17.30;99.90;;;;;;7383177;19;20131;-86
2023/10/04 08:58:52;;;;;;;1.17;1.00;;;17.30;99.90;;;;;;7393589;19;20206;-84
2023/10/04 09:01:20;;;;;;;1.05;0.68;;;17.40;99.90;;;;;;7392747;19;20239;-85
2023/10/04 09:03:47;;;;;;;0.60;0.50;;;17.50;99.90;;;;;;7393294;19;20154;-86
2023/10/04 09:06:17;;;;;;;1.35;1.00;;;17.50;99.90;;;;;;7389911;19;20151;-85
2023/10/04 09:08:44;;;;;;;0.63;0.50;;;17.70;99.90;;;;;;7392343;19;20214;-85
2023/10/04 09:11:15;;;;;;;0.57;0.57;;;17.90;99.90;;;;;;7392980;19;20149;-85
2023/10/04 09:13:50;;;;;;;0.60;0.50;;;18.00;99.90;;;;;;7398993;19;20138;-84
2023/10/04 09:16:29;;;;;;;0.65;0.40;;;18.20;99.90;;;;;;7390477;19;21217;-86
2023/10/04 09:19:18;;;;;;;0.70;0.50;;;18.30;99.90;;;;;;7394860;19;20214;-84
2023/10/04 09:21:45;;;;;;;0.93;0.60;;;18.50;99.90;;;;;;7392549;19;20135;-87
2023/10/04 09:24:15;;;;;;;1.30;0.70;;;18.60;99.90;;;;;;7391448;19;20127;-85
2023/10/04 09:26:56;;;;;;;1.45;0.70;;;18.50;99.90;;;;;;7392524;19;20134;-87
2023/10/04 09:29:36;;;;;;;2.15;0.73;;;18.50;99.90;;;;;;7392437;19;20147;-87
2023/10/04 09:32:03;;;;;;;0.98;0.75;;;18.40;99.90;;;;;;7393758;19;20171;-86
2023/10/04 09:34:30;;;;;;;0.40;0.40;;;18.50;99.90;;;;;;7392397;19;20157;-87
2023/10/04 09:36:56;;;;;;;0.52;0.52;;;18.60;99.90;;;;;;7390029;19;20146;-88
2023/10/04 09:39:24;;;;;;;0.55;0.43;;;18.50;99.90;;;;;;7392178;19;20135;-86
2023/10/04 09:41:55;;;;;;;1.38;0.40;;;18.40;99.90;;;;;;7392830;19;20217;-86
2023/10/04 09:44:29;;;;;;;1.67;0.50;;;18.30;99.90;;;;;;7391640;19;20181;-85
2023/10/04 09:47:02;;;;;;;0.35;0.28;;;18.30;99.90;;;;;;7392332;19;20141;-85
2023/10/04 09:49:31;;;;;;;1.45;0.60;;;18.40;99.90;;;;;;7392783;19;20142;-83
2023/10/04 09:52:00;;;;;;;0.68;0.68;;;18.60;99.90;;;;;;7393704;19;20145;-84
2023/10/04 09:54:27;;;;;;;2.63;0.60;;;18.70;99.90;;;;;;7396875;19;20501;-85
2023/10/04 09:56:54;;;;;;;2.40;0.40;;;19.00;99.90;;;;;;7395490;19;20151;-86
2023/10/04 09:59:26;;;;;;;0.50;0.40;;;19.00;99.90;;;;;;7397473;19;20178;-85
2023/10/04 10:01:57;;;;;;;0.47;0.43;;;19.10;99.90;;;;;;7398607;19;20162;-84
2023/10/04 10:04:33;;;;;;;0.40;0.40;;;19.20;99.90;;;;;;7398329;19;20210;-86
2023/10/04 10:07:17;;;;;;;0.57;0.40;;;19.20;99.90;;;;;;7397153;19;20142;-83
2023/10/04 10:09:55;;;;;;;0.43;0.43;;;19.30;99.90;;;;;;7399187;19;20143;-84
2023/10/04 10:12:22;;;;;;;1.02;0.60;;;19.30;99.90;;;;;;7400205;19;20230;-85
2023/10/04 10:14:48;;;;;;;0.85;0.47;;;19.20;99.90;;;;;;7397866;19;20632;-85
2023/10/04 10:17:17;;;;;;;0.50;0.50;;;19.00;99.90;;;;;;7397645;19;20222;-87
2023/10/04 10:19:46;;;;;;;2.83;2.10;;;19.10;99.90;;;;;;7400877;19;20147;-87
2023/10/04 10:22:15;;;;;;;1.30;0.60;;;19.40;99.90;;;;;;7399613;19;20174;-86
2023/10/04 10:25:13;;;;;;;0.82;0.57;;;19.60;99.90;;;;;;7394828;19;20505;-86
2023/10/04 10:27:39;;;;;;;0.60;0.50;;;19.90;99.90;;;;;;7398689;19;20599;-84
2023/10/04 10:30:08;;;;;;;1.13;0.50;;;20.10;99.90;;;;;;7398065;19;20145;-84
2023/10/04 10:32:34;;;;;;;0.93;0.63;;;20.10;99.90;;;;;;7398383;19;20177;-83
2023/10/04 10:35:04;;;;;;;0.30;0.30;;;20.10;99.90;;;;;;7408400;19;20484;-84
2023/10/04 10:37:35;;;;;;;0.93;0.65;;;19.70;99.90;;;;;;7409140;19;20147;-83
2023/10/04 10:40:13;;;;;;;0.50;0.40;;;19.60;99.90;;;;;;7403793;19;20147;-84
2023/10/04 10:43:08;;;;;;;0.75;0.60;;;19.60;99.90;;;;;;7395551;19;20611;-84
2023/10/04 10:45:34;;;;;;;0.95;0.50;;;19.30;99.90;;;;;;7398819;19;20142;-83
2023/10/04 10:48:03;;;;;;;0.38;0.30;;;19.20;99.90;;;;;;7398891;19;20123;-84
2023/10/04 10:50:37;;;;;;;0.70;0.50;;;19.20;99.90;;;;;;7409193;19;20147;-85
2023/10/04 10:53:09;;;;;;;0.63;0.50;;;19.30;99.90;;;;;;7400481;19;20145;-84
2023/10/04 10:55:36;;;;;;;0.70;0.55;;;19.50;99.90;;;;;;7394706;19;20150;-85
2023/10/04 10:58:02;;;;;;;1.40;1.08;;;19.70;99.90;;;;;;7401343;19;20135;-83
2023/10/04 11:00:34;;;;;;;2.10;0.47;;;19.80;99.90;;;;;;7401398;19;20150;-88
2023/10/04 11:03:04;;;;;;;0.32;0.30;;;20.00;99.90;;;;;;7399395;19;20127;-88
2023/10/04 11:05:30;;;;;;;1.35;0.60;;;20.20;99.90;;;;;;7403168;19;20174;-87
2023/10/04 11:07:56;;;;;;;0.45;0.40;;;20.30;99.90;;;;;;7400587;19;20617;-86
2023/10/04 11:10:24;;;;;;;0.57;0.40;;;20.20;99.90;;;;;;7398734;19;20138;-83
2023/10/04 11:12:54;;;;;;;0.60;0.50;;;20.10;99.90;;;;;;7402682;19;20157;-86
2023/10/04 11:15:23;;;;;;;1.48;0.40;;;20.00;99.90;;;;;;7405465;19;20139;-85
2023/10/04 11:17:50;;;;;;;0.35;0.35;;;19.90;99.90;;;;;;7399356;19;20387;-85
2023/10/04 11:20:21;;;;;;;1.92;0.40;;;19.90;99.90;;;;;;7403542;19;20154;-89
2023/10/04 11:22:49;;;;;;;1.02;0.60;;;20.00;99.90;;;;;;7400137;19;20289;-86
2023/10/04 11:25:17;;;;;;;1.70;0.52;;;19.80;99.90;;;;;;7398519;19;20592;-85
2023/10/04 11:27:46;;;;;;;1.63;0.68;;;19.90;99.90;;;;;;7394500;19;20150;-86
2023/10/04 11:30:14;;;;;;;0.55;0.43;;;20.00;99.90;;;;;;7397613;19;20131;-86
2023/10/04 11:32:50;;;;;;;0.60;0.30;;;20.00;99.90;;;;;;7396850;19;20182;-88
2023/10/04 11:35:19;;;;;;;1.08;0.43;;;19.90;99.90;;;;;;7393329;19;20150;-86
2023/10/04 11:37:48;;;;;;;1.80;1.02;;;19.60;99.90;;;;;;7396822;19;20151;-81
2023/10/04 11:40:17;;;;;;;1.40;0.95;;;19.50;99.90;;;;;;7397138;19;20150;-86
2023/10/04 11:42:43;;;;;;;1.38;1.00;;;19.40;99.90;;;;;;7396080;19;20170;-85
2023/10/04 11:45:19;;;;;;;1.23;0.60;;;19.60;99.90;;;;;;7392852;19;20183;-83
2023/10/04 11:47:59;;;;;;;0.45;0.40;;;19.80;99.90;;;;;;7397202;19;20138;-85
2023/10/04 11:50:26;;;;;;;1.60;0.73;;;20.10;99.90;;;;;;7391007;19;20529;-85
2023/10/04 11:52:56;;;;;;;0.63;0.50;;;20.10;99.90;;;;;;7393084;19;20145;-85
2023/10/04 11:55:26;;;;;;;0.30;0.30;;;20.00;99.90;;;;;;7392161;19;20474;-83
2023/10/04 11:57:53;;;;;;;0.65;0.40;;;19.90;99.90;;;;;;7395633;19;20627;-84
2023/10/04 12:00:22;;;;;;;0.55;0.55;;;19.90;99.90;;;;;;7394276;19;20159;-86
2023/10/04 12:02:49;;;;;;;0.75;0.50;;;19.80;99.90;;;;;;7394814;19;20222;-86
2023/10/04 12:05:15;;;;;;;0.32;0.30;;;19.80;99.90;;;;;;7393833;19;20147;-84
2023/10/04 12:07:41;;;;;;;0.40;0.40;;;19.90;99.90;;;;;;7394954;19;20549;-87
2023/10/04 12:10:09;;;;;;;0.98;0.63;;;19.90;99.90;;;;;;7395013;19;20262;-85
2023/10/04 12:12:36;;;;;;;2.72;0.77;;;19.80;99.90;;;;;;7394327;19;20146;-88
2023/10/04 12:15:07;;;;;;;0.20;0.20;;;19.80;99.90;;;;;;7394706;19;20155;-83
2023/10/04 12:17:36;;;;;;;0.63;0.40;;;19.60;99.90;;;;;;7394920;19;20166;-91
2023/10/04 12:20:04;;;;;;;0.57;0.32;;;19.60;99.90;;;;;;7393097;19;20150;-84
2023/10/04 12:22:31;;;;;;;0.30;0.30;;;19.50;99.90;;;;;;7393271;19;20642;-87
2023/10/04 12:24:59;;;;;;;0.65;0.65;;;19.50;99.90;;;;;;7394201;19;20138;-89
2023/10/04 12:27:25;;;;;;;0.30;0.30;;;19.50;99.90;;;;;;7395233;19;20501;-87
2023/10/04 12:29:51;;;;;;;1.23;0.50;;;19.60;99.90;;;;;;7396130;19;20144;-84
2023/10/04 12:32:19;;;;;;;0.30;0.30;;;19.50;99.90;;;;;;7394774;19;20151;-88
2023/10/04 12:34:45;;;;;;;0.52;0.40;;;19.50;99.90;;;;;;7394493;19;20145;-86
2023/10/04 12:37:12;;;;;;;0.55;0.35;;;19.40;99.90;;;;;;7393963;19;20198;-87
2023/10/04 12:39:38;;;;;;;0.80;0.30;;;19.50;99.90;;;;;;7393804;19;20130;-85
2023/10/04 12:42:04;;;;;;;0.80;0.60;;;19.30;99.90;;;;;;7393804;19;20251;-88
2023/10/04 12:44:31;;;;;;;2.15;0.50;;;19.40;99.90;;;;;;7392232;19;20139;-85
2023/10/04 12:46:57;;;;;;;0.40;0.40;;;19.60;99.90;;;;;;7393991;19;20138;-86
2023/10/04 12:49:23;;;;;;;0.40;0.40;;;19.80;99.90;;;;;;7396457;19;20182;-88
2023/10/04 12:51:50;;;;;;;0.50;0.47;;;19.80;99.90;;;;;;7394143;19;20138;-89
2023/10/04 12:54:16;;;;;;;1.00;0.52;;;19.90;99.90;;;;;;7391234;19;20158;-86
2023/10/04 12:56:46;;;;;;;0.65;0.50;;;19.80;99.90;;;;;;7391748;19;20158;-88
2023/10/04 12:59:12;;;;;;;0.45;0.45;;;20.00;99.90;;;;;;7394374;19;20169;-89